createdAt,value
2023-03-14T01:23:26.099Z,31.49
2023-03-14T01:24:26.109Z,31.46
2023-03-14T01:25:26.083Z,31.50
2023-03-14T01:26:26.117Z,31.47
2023-03-14T01:27:26.143Z,31.49
2023-03-14T01:28:26.110Z,31.53
2023-03-14T01:29:26.119Z,31.46
2023-03-14T01:30:26.127Z,31.48
2023-03-14T01:31:26.163Z,31.46
2023-03-14T01:32:26.128Z,31.48
2023-03-14T01:33:26.113Z,31.49
2023-03-14T01:34:26.104Z,31.45
2023-03-14T01:35:26.089Z,31.45
2023-03-14T01:36:26.096Z,31.47
2023-03-14T01:37:26.087Z,31.43
2023-03-14T01:38:26.098Z,31.46
2023-03-14T01:39:26.117Z,31.45
2023-03-14T01:40:26.135Z,31.45
2023-03-14T01:41:26.166Z,31.42
2023-03-14T01:42:26.147Z,31.48
2023-03-14T01:43:26.201Z,31.42
2023-03-14T01:44:26.179Z,31.48
2023-03-14T01:45:26.289Z,31.47
2023-03-14T01:46:26.287Z,31.43
2023-03-14T01:47:26.261Z,31.47
2023-03-14T01:48:26.290Z,31.46
2023-03-14T01:49:26.300Z,31.48
2023-03-14T01:50:26.330Z,31.45
2023-03-14T01:51:26.359Z,31.46
2023-03-14T01:52:26.360Z,31.46
2023-03-14T01:53:26.371Z,31.43
2023-03-14T01:54:26.414Z,31.42
2023-03-14T01:55:26.413Z,31.46
2023-03-14T01:56:26.395Z,31.42
2023-03-14T01:57:26.414Z,31.42
2023-03-14T01:58:26.442Z,31.43
2023-03-14T01:59:26.470Z,31.42
2023-03-14T02:00:26.504Z,31.42
2023-03-14T02:01:26.595Z,31.44
2023-03-14T02:02:26.525Z,31.44
2023-03-14T02:03:26.579Z,31.46
2023-03-14T02:04:26.563Z,31.40
2023-03-14T02:05:26.563Z,31.42
2023-03-14T02:07:26.599Z,31.43
2023-03-14T02:08:26.613Z,31.43
2023-03-14T02:09:26.638Z,31.39
2023-03-14T02:10:26.643Z,31.40
2023-03-14T02:11:26.634Z,31.43
2023-03-14T02:12:26.637Z,31.42
2023-03-14T02:13:26.652Z,31.47
2023-03-14T02:14:26.660Z,31.42
2023-03-14T02:15:26.751Z,31.40
2023-03-14T02:16:26.690Z,31.44
2023-03-14T02:17:26.664Z,31.41
2023-03-14T02:18:26.726Z,31.39
2023-03-14T02:19:26.647Z,31.40
2023-03-14T02:20:26.664Z,31.37
2023-03-14T02:21:26.654Z,31.40
2023-03-14T02:22:26.666Z,31.42
2023-03-14T02:23:26.680Z,31.36
2023-03-14T02:24:26.702Z,31.42
2023-03-14T02:25:26.697Z,31.39
2023-03-14T02:26:26.702Z,31.39
2023-03-14T02:27:26.712Z,31.39
2023-03-14T02:28:26.738Z,31.37
2023-03-14T02:29:26.768Z,31.43
2023-03-14T02:31:26.831Z,31.41
2023-03-14T02:32:26.841Z,31.42
2023-03-14T02:33:26.857Z,31.37
2023-03-14T05:13:30.558Z,30.82
2023-03-14T05:14:30.621Z,30.83
2023-03-14T05:15:30.684Z,30.82
2023-03-14T05:16:30.783Z,30.80
2023-03-14T05:17:30.786Z,30.82
2023-03-14T05:18:30.848Z,30.80
2023-03-14T05:19:30.918Z,30.83
2023-03-14T05:20:30.958Z,30.82
2023-03-14T05:21:31.016Z,30.83
2023-03-14T05:22:31.079Z,30.79
2023-03-14T05:23:31.133Z,30.78
2023-03-14T05:24:31.185Z,30.78
2023-03-14T05:25:32.681Z,30.75
2023-03-14T05:26:31.294Z,30.78
2023-03-14T05:27:31.340Z,30.78
2023-03-14T05:28:31.407Z,30.75
2023-03-14T05:29:31.467Z,30.75
2023-03-14T05:30:31.520Z,30.78
2023-03-14T05:31:31.663Z,30.75
2023-03-14T05:32:31.668Z,30.75
2023-03-14T05:33:31.692Z,30.77
2023-03-14T05:34:31.749Z,30.80
2023-03-14T05:35:31.843Z,30.74
2023-03-14T05:36:31.875Z,30.71
2023-03-14T05:37:31.937Z,30.72
2023-03-14T05:38:31.975Z,30.69
2023-03-14T05:39:32.028Z,30.74
2023-03-14T05:40:32.087Z,30.71
2023-03-14T05:41:32.140Z,30.74
2023-03-14T05:42:32.191Z,30.69
2023-03-14T05:43:32.243Z,30.70
2023-03-14T05:44:32.313Z,30.69
2023-03-14T05:45:34.500Z,30.69
2023-03-14T05:46:32.342Z,30.67
2023-03-14T05:47:32.338Z,30.69
2023-03-14T05:48:32.322Z,30.69
2023-03-14T05:49:32.307Z,30.66
2023-03-14T05:50:32.294Z,30.67
2023-03-14T05:51:32.286Z,30.68
2023-03-14T05:52:32.274Z,30.66
2023-03-14T05:53:32.269Z,30.67
2023-03-14T05:54:32.258Z,30.63
2023-03-14T05:55:32.263Z,30.67
2023-03-14T05:56:32.228Z,30.63
2023-03-14T05:57:32.228Z,30.66
2023-03-14T05:58:32.222Z,30.60
2023-03-14T05:59:32.200Z,30.62
2023-03-14T06:00:32.183Z,30.64
2023-03-14T06:01:32.180Z,30.60
2023-03-14T06:02:32.198Z,30.62
2023-03-14T06:03:32.204Z,30.62
2023-03-14T06:04:32.141Z,30.58
2023-03-14T06:05:32.209Z,30.64
2023-03-14T06:06:32.125Z,30.57
2023-03-14T06:07:32.113Z,30.63
2023-03-14T06:08:32.116Z,30.58
2023-03-14T06:09:32.097Z,30.59
2023-03-14T06:10:32.087Z,30.60
2023-03-14T06:11:32.087Z,30.56
2023-03-14T06:12:32.081Z,30.58
2023-03-14T06:13:32.068Z,30.52
2023-03-14T06:14:32.065Z,30.56
2023-03-14T06:15:32.045Z,30.59
2023-03-14T06:16:32.072Z,30.53
2023-03-14T06:17:32.032Z,30.53
2023-03-14T06:18:32.024Z,30.53
2023-03-14T06:19:32.014Z,30.59
2023-03-14T06:20:32.018Z,30.68
2023-03-14T06:21:31.996Z,30.67
2023-03-14T06:22:31.986Z,30.72
2023-03-14T06:23:31.960Z,30.73
2023-03-14T06:24:31.976Z,30.80
2023-03-14T06:25:31.956Z,30.85
2023-03-14T06:26:32.006Z,31.01
2023-03-14T06:27:32.051Z,31.15
2023-03-14T06:28:32.120Z,31.67
2023-03-14T06:29:32.155Z,31.56
2023-03-14T06:30:32.256Z,31.77
2023-03-14T06:31:32.348Z,32.45
2023-03-14T06:32:32.378Z,33.68
2023-03-14T06:33:32.349Z,33.62
2023-03-14T06:34:32.385Z,33.89
2023-03-14T06:36:32.436Z,34.26
2023-03-14T06:37:32.461Z,34.41
2023-03-14T06:38:32.500Z,34.86
2023-03-14T06:39:32.526Z,35.05
2023-03-14T06:40:32.533Z,35.84
2023-03-14T06:41:32.566Z,36.58
2023-03-14T06:42:32.610Z,36.63
2023-03-14T06:43:32.574Z,37.17
2023-03-14T06:44:32.601Z,37.30
2023-03-14T06:45:32.605Z,37.33
2023-03-14T06:46:32.677Z,37.95
2023-03-14T06:47:32.618Z,38.33
2023-03-14T06:48:32.617Z,38.96
2023-03-14T06:49:32.615Z,38.99
2023-03-14T06:50:32.609Z,39.60
2023-03-14T06:51:32.618Z,39.41
2023-03-14T06:52:32.718Z,39.85
2023-03-14T06:53:32.590Z,40.23
2023-03-14T06:54:32.561Z,40.58
2023-03-14T06:55:32.563Z,40.99
2023-03-14T06:56:32.512Z,36.35
2023-03-14T06:57:32.481Z,36.62
2023-03-14T06:58:32.477Z,36.28
2023-03-14T06:59:32.460Z,36.54
2023-03-14T07:00:32.491Z,37.52
2023-03-14T07:01:33.403Z,38.62
2023-03-14T07:02:42.324Z,39.00
2023-03-14T07:03:33.457Z,39.11
2023-03-14T07:04:32.530Z,39.17
2023-03-14T07:05:32.454Z,37.87
2023-03-14T07:06:32.438Z,36.89
2023-03-14T07:07:32.451Z,38.24
2023-03-14T07:08:32.442Z,38.79
2023-03-14T07:09:32.431Z,38.66
2023-03-14T07:10:32.414Z,38.85
2023-03-14T07:11:32.419Z,39.29
2023-03-14T07:12:32.471Z,39.45
2023-03-14T07:13:32.494Z,39.93
2023-03-14T07:14:32.512Z,39.76
2023-03-14T07:15:32.585Z,40.07
2023-03-14T07:16:32.543Z,39.98
2023-03-14T07:17:32.554Z,40.21
2023-03-14T07:18:32.546Z,40.27
2023-03-14T07:19:32.525Z,40.55
2023-03-14T07:20:32.495Z,40.85
2023-03-14T07:21:32.477Z,41.20
2023-03-14T07:22:32.465Z,41.36
2023-03-14T07:23:32.444Z,41.54
2023-03-14T07:24:32.417Z,41.39
2023-03-14T07:25:32.402Z,41.49
2023-03-14T07:26:32.406Z,41.44
2023-03-14T07:27:32.381Z,36.84
2023-03-14T07:28:32.350Z,34.38
2023-03-14T07:29:32.360Z,32.87
2023-03-14T07:30:32.364Z,34.54
2023-03-14T07:31:32.402Z,36.02
2023-03-14T07:32:32.397Z,36.90
2023-03-14T07:33:32.390Z,37.07
2023-03-14T07:34:32.390Z,38.35
2023-03-14T07:35:33.382Z,38.64
2023-03-14T07:36:32.388Z,38.72
2023-03-14T07:37:32.422Z,38.68
2023-03-14T07:38:32.387Z,38.84
2023-03-14T07:39:32.390Z,38.89
2023-03-14T07:40:32.359Z,39.06
2023-03-14T07:41:32.356Z,39.20
2023-03-14T07:42:32.342Z,39.14
2023-03-14T07:43:32.334Z,39.27
2023-03-14T07:44:33.289Z,39.58
2023-03-14T07:45:32.308Z,39.52
2023-03-14T07:46:32.476Z,39.73
2023-03-14T07:47:32.316Z,39.81
2023-03-14T07:48:32.325Z,40.03
2023-03-14T07:49:32.318Z,39.93
2023-03-14T07:50:32.314Z,40.05
2023-03-14T07:51:32.330Z,40.14
2023-03-14T07:52:32.275Z,40.43
2023-03-14T07:53:32.266Z,40.65
2023-03-14T07:54:32.245Z,40.70
2023-03-14T07:55:32.231Z,40.94
2023-03-14T07:56:32.207Z,40.87
2023-03-14T07:57:32.190Z,40.82
2023-03-14T07:58:32.157Z,41.03
2023-03-14T07:59:32.138Z,41.12
2023-03-14T08:00:32.117Z,41.24
2023-03-14T08:01:32.833Z,41.40
2023-03-14T08:02:32.175Z,41.49
2023-03-14T08:03:32.087Z,41.55
2023-03-14T08:04:32.046Z,41.98
2023-03-14T08:05:32.027Z,41.93
2023-03-14T08:06:32.871Z,42.25
2023-03-14T08:07:31.964Z,42.22
2023-03-14T08:08:31.949Z,42.32
2023-03-14T08:09:31.926Z,42.65
2023-03-14T08:10:31.903Z,42.43
2023-03-14T08:11:31.886Z,42.57
2023-03-14T08:12:31.860Z,42.85
2023-03-14T08:13:31.840Z,42.94
2023-03-14T08:14:31.804Z,42.88
2023-03-14T08:15:31.770Z,43.03
2023-03-14T08:16:31.844Z,43.41
2023-03-14T08:17:31.723Z,43.35
2023-03-14T08:18:31.714Z,43.36
2023-03-14T08:19:31.680Z,43.19
2023-03-14T08:20:31.643Z,42.12
2023-03-14T08:21:31.627Z,42.76
2023-03-14T08:22:32.378Z,42.51
2023-03-14T08:23:31.601Z,42.37
2023-03-14T08:24:31.598Z,42.31
2023-03-14T08:25:31.703Z,42.22
2023-03-14T08:26:31.576Z,42.18
2023-03-14T08:27:31.583Z,42.10
2023-03-14T08:28:31.571Z,42.09
2023-03-14T08:29:31.541Z,41.95
2023-03-14T08:30:31.559Z,41.86
2023-03-14T08:31:31.585Z,41.69
2023-03-14T08:32:31.523Z,41.68
2023-03-14T08:33:31.489Z,41.60
2023-03-14T08:34:31.476Z,41.49
2023-03-14T08:35:31.466Z,41.50
2023-03-14T08:36:31.486Z,41.37
2023-03-14T08:37:31.455Z,41.35
2023-03-14T08:38:31.454Z,41.30
2023-03-14T08:39:31.440Z,41.27
2023-03-14T08:40:31.439Z,41.23
2023-03-14T08:41:31.429Z,41.17
2023-03-14T08:42:31.428Z,41.13
2023-03-14T08:43:31.421Z,41.09
2023-03-14T08:44:31.449Z,41.08
2023-03-14T08:45:31.408Z,41.05
2023-03-14T08:46:31.434Z,41.01
2023-03-14T08:47:31.444Z,41.02
2023-03-14T08:48:31.482Z,41.04
2023-03-14T08:49:31.417Z,41.00
2023-03-14T08:50:31.402Z,41.02
2023-03-14T08:51:31.399Z,41.02
2023-03-14T08:52:31.424Z,41.10
2023-03-14T08:53:31.408Z,41.02
2023-03-14T08:54:31.401Z,41.01
2023-03-14T08:55:31.392Z,41.02
2023-03-14T08:56:31.407Z,40.97
2023-03-14T08:57:31.395Z,40.92
2023-03-14T08:58:31.402Z,40.87
2023-03-14T08:59:31.416Z,40.87
2023-03-14T09:00:31.411Z,40.88
2023-03-14T09:01:31.449Z,40.86
2023-03-14T09:02:31.416Z,40.83
2023-03-14T09:03:31.419Z,40.73
2023-03-14T09:04:31.481Z,40.79
2023-03-14T09:05:31.447Z,40.80
2023-03-14T09:06:31.447Z,40.79
2023-03-14T09:07:31.446Z,40.66
2023-03-14T09:08:31.441Z,40.70
2023-03-14T09:09:31.457Z,40.62
2023-03-14T09:10:31.455Z,40.56
2023-03-14T09:11:31.448Z,40.41
2023-03-14T09:12:31.444Z,39.10
2023-03-14T09:13:31.448Z,36.26
2023-03-14T09:14:31.488Z,34.95
2023-03-14T09:15:31.507Z,34.52
2023-03-14T09:16:31.560Z,34.80
2023-03-14T09:17:31.537Z,34.01
2023-03-14T09:18:31.557Z,33.20
2023-03-14T09:19:31.575Z,33.15
2023-03-14T09:20:31.623Z,33.02
2023-03-14T09:21:32.317Z,32.59
2023-03-14T09:22:31.732Z,32.91
2023-03-14T09:23:31.787Z,33.47
2023-03-14T09:24:31.858Z,33.60
2023-03-14T09:25:31.924Z,35.09
2023-03-14T09:26:31.994Z,34.81
2023-03-14T09:27:32.071Z,34.75
2023-03-14T09:28:32.137Z,34.25
2023-03-14T09:29:32.831Z,33.77
2023-03-14T09:30:32.167Z,33.88
2023-03-14T09:31:32.217Z,33.60
2023-03-14T09:32:32.191Z,33.68
2023-03-14T09:33:32.193Z,33.92
2023-03-14T09:34:32.198Z,33.89
2023-03-14T09:35:32.206Z,33.43
2023-03-14T09:36:32.180Z,33.30
2023-03-14T09:37:32.167Z,33.25
2023-03-14T09:38:32.177Z,33.44
2023-03-14T09:39:32.168Z,32.85
2023-03-14T09:40:32.193Z,33.27
2023-03-14T09:41:32.274Z,33.33
2023-03-14T09:42:32.307Z,33.05
2023-03-14T09:43:32.364Z,33.15
2023-03-14T09:44:32.411Z,33.51
2023-03-14T09:45:32.473Z,33.53
2023-03-14T09:46:32.587Z,33.13
2023-03-14T09:47:32.540Z,33.67
2023-03-14T09:48:32.592Z,32.94
2023-03-14T09:49:32.626Z,32.35
2023-03-14T09:50:32.661Z,32.11
2023-03-14T09:51:32.699Z,32.26
2023-03-14T09:52:32.735Z,31.84
2023-03-14T09:53:32.787Z,32.74
2023-03-14T09:54:32.829Z,33.09
2023-03-14T09:55:34.294Z,32.62
2023-03-14T09:56:33.024Z,31.91
2023-03-14T09:57:33.053Z,32.33
2023-03-14T09:58:33.086Z,32.72
2023-03-14T09:59:33.819Z,32.34
2023-03-14T10:00:33.188Z,32.82
2023-03-14T10:01:33.402Z,32.62
2023-03-14T10:02:33.241Z,31.93
2023-03-14T10:03:33.279Z,31.13
2023-03-14T10:04:33.363Z,31.05
2023-03-14T10:05:33.373Z,31.82
2023-03-14T10:06:33.412Z,31.65
2023-03-14T10:07:33.461Z,31.73
2023-03-14T10:08:33.513Z,32.31
2023-03-14T10:09:33.559Z,32.62
2023-03-14T10:10:33.642Z,32.75
2023-03-14T10:11:33.695Z,32.76
2023-03-14T10:12:33.709Z,32.92
2023-03-14T10:13:33.734Z,32.08
2023-03-14T10:14:33.763Z,32.34
2023-03-14T10:15:33.813Z,32.60
2023-03-14T10:16:33.891Z,32.88
2023-03-14T10:17:33.855Z,32.98
2023-03-14T10:18:33.883Z,32.88
2023-03-14T10:19:33.903Z,32.91
2023-03-14T10:20:33.930Z,32.89
2023-03-14T10:21:33.932Z,32.88
2023-03-14T10:22:33.965Z,32.87
2023-03-14T10:23:33.948Z,32.81
2023-03-14T10:24:33.973Z,32.80
2023-03-14T10:25:33.965Z,32.76
2023-03-14T10:26:33.956Z,32.73
2023-03-14T10:27:33.993Z,32.73
2023-03-14T10:28:34.836Z,32.72
2023-03-14T10:29:33.973Z,32.67
2023-03-14T10:30:34.039Z,32.67
2023-03-14T10:31:33.969Z,32.68
2023-03-14T10:32:34.008Z,32.66
2023-03-14T10:33:33.976Z,32.64
2023-03-14T10:34:34.053Z,32.62
2023-03-14T10:35:34.028Z,32.61
2023-03-14T10:36:33.991Z,32.57
2023-03-14T10:37:33.963Z,32.57
2023-03-14T10:38:34.939Z,32.54
2023-03-14T10:39:33.967Z,32.58
2023-03-14T10:40:33.984Z,32.59
2023-03-14T10:41:33.959Z,32.57
2023-03-14T10:42:33.966Z,32.52
2023-03-14T10:43:33.967Z,32.54
2023-03-14T10:44:33.975Z,32.58
2023-03-14T10:45:33.980Z,32.55
2023-03-14T10:46:34.009Z,32.57
2023-03-14T10:47:33.969Z,32.50
2023-03-14T10:48:33.972Z,32.54
2023-03-14T10:49:34.029Z,32.55
2023-03-14T10:50:33.980Z,32.55
2023-03-14T10:51:33.979Z,32.49
2023-03-14T10:52:57.373Z,32.57
2023-03-14T10:53:34.955Z,32.48
2023-03-14T10:54:33.927Z,32.50
2023-03-14T10:55:33.902Z,32.57
2023-03-14T10:56:33.880Z,32.55
2023-03-14T10:57:33.871Z,32.55
2023-03-14T10:58:33.884Z,32.52
2023-03-14T10:59:33.835Z,32.50
2023-03-14T11:00:33.813Z,32.50
2023-03-14T11:01:33.838Z,32.46
2023-03-14T11:02:33.767Z,32.50
2023-03-14T11:03:33.737Z,32.48
2023-03-14T11:04:33.796Z,32.54
2023-03-14T11:05:33.682Z,32.55
2023-03-14T11:06:33.803Z,32.51
2023-03-14T11:07:33.641Z,32.51
2023-03-14T11:08:33.656Z,32.48
2023-03-14T11:09:33.608Z,32.50
2023-03-14T11:10:33.571Z,32.51
2023-03-14T11:11:33.550Z,32.54
2023-03-14T11:12:33.530Z,32.53
2023-03-14T11:13:34.443Z,32.52
2023-03-14T11:14:33.490Z,32.55
2023-03-14T11:15:33.494Z,32.53
2023-03-14T11:16:33.461Z,32.55
2023-03-14T11:17:33.459Z,32.55
2023-03-14T11:18:33.432Z,32.56
2023-03-14T11:19:34.492Z,32.56
2023-03-14T11:20:33.435Z,32.57
2023-03-14T11:21:33.445Z,32.57
2023-03-14T11:22:33.441Z,32.57
2023-03-14T11:23:33.447Z,32.57
2023-03-14T11:24:33.449Z,32.57
2023-03-14T11:25:33.463Z,32.64
2023-03-14T11:26:33.461Z,32.60
2023-03-14T11:27:33.463Z,32.61
2023-03-14T11:28:33.471Z,32.59
2023-03-14T11:29:33.474Z,32.57
2023-03-14T11:30:33.474Z,32.59
2023-03-14T11:31:33.559Z,32.64
2023-03-14T11:32:33.507Z,32.57
2023-03-14T11:33:33.486Z,32.62
2023-03-14T11:34:33.494Z,32.56
2023-03-14T11:35:33.525Z,32.57
2023-03-14T11:36:33.966Z,32.57
2023-03-14T11:37:33.522Z,32.51
2023-03-14T11:38:33.519Z,32.60
2023-03-14T11:39:33.546Z,32.57
2023-03-14T11:40:33.529Z,32.54
2023-03-14T11:41:33.543Z,32.53
2023-03-14T11:42:33.548Z,32.56
2023-03-14T11:43:33.553Z,32.58
2023-03-14T11:44:33.565Z,32.53
2023-03-14T11:45:33.570Z,32.50
2023-03-14T11:46:33.626Z,32.57
2023-03-14T11:47:33.587Z,32.51
2023-03-14T11:48:33.596Z,32.47
2023-03-14T11:49:33.593Z,32.53
2023-03-14T11:50:33.593Z,32.46
2023-03-14T11:51:34.115Z,32.50
2023-03-14T11:52:33.612Z,32.50
2023-03-14T11:53:33.593Z,32.50
2023-03-14T11:54:33.941Z,32.48
2023-03-14T11:55:33.630Z,32.55
2023-03-14T11:56:33.630Z,32.54
2023-03-14T11:57:33.908Z,32.53
2023-03-14T11:58:33.620Z,32.53
2023-03-14T11:59:33.625Z,32.48
2023-03-14T12:00:33.789Z,32.46
2023-03-14T12:01:33.662Z,32.44
2023-03-14T12:02:33.627Z,32.44
2023-03-14T12:03:33.859Z,32.48
2023-03-14T12:04:33.630Z,32.46
2023-03-14T12:05:33.654Z,32.43
2023-03-14T12:06:33.661Z,32.47
2023-03-14T12:07:33.633Z,32.44
2023-03-14T12:08:33.627Z,32.46
2023-03-14T12:09:33.636Z,32.46
2023-03-14T12:10:33.621Z,32.47
2023-03-14T12:11:33.626Z,32.44
2023-03-14T12:12:33.626Z,32.45
2023-03-14T12:13:33.621Z,32.46
2023-03-14T12:14:33.653Z,32.46
2023-03-14T12:15:33.636Z,32.44
2023-03-14T12:16:33.691Z,32.43
2023-03-14T12:17:33.654Z,32.48
2023-03-14T12:18:33.660Z,32.44
2023-03-14T12:19:33.663Z,32.46
2023-03-14T12:20:33.672Z,32.48
2023-03-14T12:21:33.668Z,32.46
2023-03-14T12:22:33.675Z,32.44
2023-03-14T12:23:33.682Z,32.47
2023-03-14T12:24:33.690Z,32.44
2023-03-14T12:25:33.705Z,32.51
2023-03-14T12:26:33.708Z,32.50
2023-03-14T12:27:33.713Z,32.50
2023-03-14T12:28:33.724Z,32.45
2023-03-14T12:29:33.734Z,32.48
2023-03-14T12:30:33.757Z,32.50
2023-03-14T12:31:33.787Z,32.46
2023-03-14T12:32:33.804Z,32.51
2023-03-14T12:33:33.825Z,32.51
2023-03-14T12:34:33.786Z,32.48
2023-03-14T12:35:33.813Z,32.49
2023-03-14T12:36:33.791Z,32.48
2023-03-14T12:37:33.799Z,33.38
2023-03-14T12:38:33.807Z,33.48
2023-03-14T12:39:33.814Z,33.60
2023-03-14T12:40:33.966Z,33.89
2023-03-14T12:41:33.837Z,33.75
2023-03-14T12:42:44.581Z,34.21
2023-03-14T12:43:35.012Z,34.38
2023-03-14T12:44:33.822Z,34.26
2023-03-14T12:45:33.848Z,34.68
2023-03-14T12:46:33.841Z,34.66
2023-03-14T12:47:33.782Z,34.95
2023-03-14T12:48:33.765Z,35.37
2023-03-14T12:49:33.762Z,35.46
2023-03-14T12:50:33.755Z,35.44
2023-03-14T12:51:33.739Z,35.51
2023-03-14T12:52:33.732Z,35.54
2023-03-14T12:53:33.713Z,35.51
2023-03-14T12:54:33.918Z,35.55
2023-03-14T12:55:33.687Z,35.55
2023-03-14T12:56:33.678Z,35.51
2023-03-14T12:57:33.681Z,35.45
2023-03-14T12:58:33.671Z,35.33
2023-03-14T12:59:33.633Z,35.24
2023-03-14T13:00:33.614Z,35.27
2023-03-14T13:01:33.661Z,35.23
2023-03-14T13:02:33.569Z,35.14
2023-03-14T13:03:33.568Z,35.14
2023-03-14T13:04:39.704Z,35.12
2023-03-14T13:05:33.521Z,35.09
2023-03-14T13:06:33.510Z,35.09
2023-03-14T13:07:33.503Z,35.09
2023-03-14T13:08:33.545Z,35.09
2023-03-14T13:09:33.473Z,35.02
2023-03-14T13:10:38.222Z,35.06
2023-03-14T13:11:34.954Z,35.06
2023-03-14T13:12:33.432Z,35.05
2023-03-14T13:14:33.426Z,35.06
2023-03-14T13:15:33.388Z,35.06
2023-03-14T13:16:33.401Z,35.06
2023-03-14T13:17:36.921Z,35.03
2023-03-14T13:18:33.324Z,35.06
2023-03-14T13:19:33.306Z,35.01
2023-03-14T13:20:33.309Z,35.06
2023-03-14T13:21:33.281Z,35.08
2023-03-14T13:22:33.253Z,35.09
2023-03-14T13:23:33.235Z,35.05
2023-03-14T13:24:33.229Z,35.01
2023-03-14T13:25:33.199Z,35.04
2023-03-14T13:26:33.194Z,35.04
2023-03-14T13:27:33.177Z,35.06
2023-03-14T13:28:33.154Z,35.04
2023-03-14T13:29:33.142Z,35.06
2023-03-14T13:30:33.241Z,35.02
2023-03-14T13:31:33.123Z,35.07
2023-03-14T13:32:33.273Z,35.02
2023-03-14T13:33:35.294Z,35.02
2023-03-14T13:34:33.353Z,35.01
2023-03-14T13:35:33.081Z,35.05
2023-03-14T13:36:33.003Z,35.05
2023-03-14T13:37:32.990Z,35.08
2023-03-14T13:38:33.990Z,35.09
2023-03-14T13:39:32.973Z,35.05
2023-03-14T13:40:32.967Z,35.05
2023-03-14T13:41:32.918Z,35.08
2023-03-14T13:42:32.906Z,35.09
2023-03-14T14:12:32.781Z,35.19
2023-03-14T14:23:32.903Z,35.25
2023-03-14T14:31:33.070Z,35.27
2023-03-14T14:32:33.043Z,35.28
2023-03-14T14:33:33.023Z,35.27
2023-03-14T14:35:33.123Z,35.26
2023-03-14T14:36:33.074Z,35.22
2023-03-14T14:41:33.132Z,35.35
2023-03-14T14:42:33.132Z,35.30
2023-03-14T14:43:33.149Z,35.30
2023-03-14T14:44:33.919Z,35.30
2023-03-14T14:45:33.178Z,35.32
2023-03-14T14:46:33.228Z,35.31
2023-03-14T14:47:33.217Z,35.27
2023-03-14T14:48:33.226Z,35.27
2023-03-14T14:49:33.288Z,35.28
2023-03-14T14:51:33.213Z,35.31
2023-03-14T14:52:33.197Z,35.28
2023-03-14T14:53:33.194Z,35.28
2023-03-14T14:54:33.168Z,35.23
2023-03-14T14:55:33.154Z,35.24
2023-03-14T14:56:33.139Z,35.23
2023-03-14T14:57:34.131Z,35.23
2023-03-14T14:58:33.109Z,35.27
2023-03-14T14:59:33.072Z,35.27
2023-03-14T15:00:34.424Z,35.30
2023-03-14T15:01:33.126Z,35.31
2023-03-14T15:02:33.076Z,35.30
2023-03-14T15:03:33.011Z,35.22
2023-03-14T15:04:33.031Z,35.27
2023-03-14T15:05:32.960Z,35.23
2023-03-14T15:06:33.021Z,35.24
2023-03-14T15:07:32.920Z,35.23
2023-03-14T15:08:32.893Z,35.20
2023-03-14T15:09:32.884Z,35.20
2023-03-14T15:10:32.960Z,35.17
2023-03-14T15:11:32.855Z,35.17
2023-03-14T15:12:32.848Z,35.23
2023-03-14T15:13:32.828Z,35.23
2023-03-14T15:14:32.803Z,35.15
2023-03-14T15:15:32.790Z,35.18
2023-03-14T15:16:32.822Z,35.15
2023-03-14T15:17:32.774Z,35.14
2023-03-14T15:18:32.898Z,35.15
2023-03-14T15:19:33.515Z,35.18
2023-03-14T15:20:32.813Z,35.14
2023-03-14T15:21:32.827Z,35.14
2023-03-14T15:22:32.841Z,35.17
2023-03-14T15:23:32.855Z,35.12
2023-03-14T15:24:32.884Z,35.11
2023-03-14T15:25:53.323Z,35.15
2023-03-14T15:26:33.868Z,35.16
2023-03-14T15:27:32.837Z,35.12
2023-03-14T15:28:32.820Z,35.15
2023-03-14T15:29:32.811Z,35.08
2023-03-14T15:30:32.798Z,35.08
2023-03-14T15:31:32.791Z,35.09
2023-03-14T15:32:32.800Z,35.03
2023-03-14T15:33:32.754Z,35.08
2023-03-14T15:34:32.714Z,35.04
2023-03-14T15:35:32.706Z,35.01
2023-03-14T15:36:32.693Z,34.94
2023-03-14T15:37:32.665Z,34.97
2023-03-14T15:38:32.651Z,34.97
2023-03-14T15:39:32.649Z,34.97
2023-03-14T15:40:32.628Z,34.90
2023-03-14T15:41:32.624Z,34.89
2023-03-14T15:42:32.605Z,34.88
2023-03-14T15:43:32.647Z,34.96
2023-03-14T15:44:32.559Z,34.86
2023-03-14T15:45:32.605Z,34.84
2023-03-14T15:46:33.525Z,34.86
2023-03-14T15:47:32.592Z,34.86
2023-03-14T15:48:32.604Z,34.86
2023-03-14T15:49:32.617Z,34.80
2023-03-14T15:50:32.640Z,34.86
2023-03-14T15:51:32.651Z,34.88
2023-03-14T15:52:32.671Z,34.91
2023-03-14T15:53:32.668Z,34.89
2023-03-14T15:54:32.709Z,34.86
2023-03-14T15:55:32.711Z,34.90
2023-03-14T15:56:32.711Z,34.86
2023-03-14T15:57:32.725Z,34.85
2023-03-14T15:58:32.741Z,34.87
2023-03-14T15:59:32.769Z,34.91
2023-03-14T16:00:32.783Z,34.82
2023-03-14T16:01:32.840Z,34.88
2023-03-14T16:02:32.823Z,34.92
2023-03-14T16:03:32.847Z,34.92
2023-03-14T16:04:32.886Z,34.91
2023-03-14T16:05:32.890Z,34.92
2023-03-14T16:06:32.915Z,34.89
2023-03-14T16:07:33.586Z,34.87
2023-03-14T16:08:32.956Z,34.90
2023-03-14T16:09:32.990Z,34.86
2023-03-14T16:10:33.005Z,34.88
2023-03-14T16:11:33.068Z,34.82
2023-03-14T16:12:33.083Z,34.92
2023-03-14T16:13:33.069Z,34.95
2023-03-14T16:14:33.100Z,34.95
2023-03-14T16:15:33.126Z,34.91
2023-03-14T16:16:33.210Z,34.90
2023-03-14T16:17:33.158Z,34.95
2023-03-14T16:18:33.185Z,34.91
2023-03-14T16:19:33.215Z,34.91
2023-03-14T16:20:45.566Z,34.88
2023-03-14T16:21:34.221Z,34.89
2023-03-14T16:22:33.200Z,34.86
2023-03-14T16:23:33.183Z,34.86
2023-03-14T16:24:33.177Z,34.87
2023-03-14T16:25:33.162Z,34.90
2023-03-14T16:26:33.243Z,34.87
2023-03-14T16:27:33.141Z,34.93
2023-03-14T16:28:33.126Z,35.01
2023-03-14T16:29:33.121Z,35.02
2023-03-14T16:30:33.108Z,34.89
2023-03-14T16:31:33.554Z,34.86
2023-03-14T16:32:34.168Z,34.83
2023-03-14T16:33:33.075Z,34.84
2023-03-14T16:34:33.051Z,34.80
2023-03-14T16:35:33.029Z,34.82
2023-03-14T16:36:33.018Z,34.83
2023-03-14T16:37:33.042Z,34.80
2023-03-14T16:38:34.058Z,34.84
2023-03-14T16:39:33.100Z,34.78
2023-03-14T16:40:33.118Z,34.79
2023-03-14T16:41:33.190Z,34.94
2023-03-14T16:42:33.307Z,34.92
2023-03-14T16:43:33.212Z,35.00
2023-03-14T16:44:33.243Z,34.87
2023-03-14T16:45:33.282Z,34.81
2023-03-14T16:46:33.374Z,34.76
2023-03-14T16:47:33.328Z,34.79
2023-03-14T16:48:33.371Z,34.98
2023-03-14T16:49:33.385Z,35.07
2023-03-14T16:50:33.417Z,35.09
2023-03-14T16:51:33.466Z,34.95
2023-03-14T16:52:33.491Z,34.90
2023-03-14T16:53:33.533Z,34.84
2023-03-14T16:54:33.565Z,34.90
2023-03-14T16:55:33.582Z,34.91
2023-03-14T16:56:33.612Z,34.99
2023-03-14T16:57:33.644Z,34.92
2023-03-14T16:58:33.680Z,35.01
2023-03-14T16:59:33.712Z,34.99
2023-03-14T17:00:33.761Z,34.96
2023-03-14T17:01:33.808Z,34.95
2023-03-14T17:02:33.844Z,35.02
2023-03-14T17:03:33.881Z,34.92
2023-03-14T17:04:33.915Z,34.98
2023-03-14T19:40:40.630Z,34.80
2023-03-14T19:41:40.665Z,34.81
2023-03-14T19:42:40.708Z,34.83
2023-03-14T19:43:40.762Z,34.87
2023-03-14T19:44:40.801Z,34.86
2023-03-14T20:04:41.753Z,34.83
2023-03-14T20:05:41.805Z,34.82
2023-03-14T20:06:41.829Z,34.84
2023-03-14T20:07:41.867Z,34.90
2023-03-14T20:08:41.912Z,34.95
2023-03-14T20:09:41.950Z,34.82
2023-03-14T20:10:42.018Z,34.88
2023-03-14T20:11:42.047Z,34.84
2023-03-14T20:12:42.101Z,34.84
2023-03-14T20:13:42.168Z,34.88
2023-03-14T20:14:42.198Z,34.86
2023-03-14T20:15:42.255Z,34.89
2023-03-14T20:16:42.347Z,34.78
2023-03-14T20:17:42.336Z,34.83
2023-03-14T20:18:42.388Z,34.85
2023-03-14T20:19:42.428Z,34.84
2023-03-14T20:20:42.498Z,34.84
2023-03-14T20:21:42.544Z,34.93
2023-03-14T20:22:42.597Z,34.89
2023-03-14T20:23:42.640Z,34.86
2023-03-14T20:24:42.679Z,34.83
2023-03-14T22:58:51.574Z,34.82
2023-03-14T22:59:50.706Z,34.81
2023-03-14T23:00:50.790Z,34.81
2023-03-14T23:01:50.823Z,34.78
2023-03-14T23:02:50.910Z,34.81
2023-03-14T23:03:50.923Z,34.76
2023-03-14T23:04:50.973Z,34.71
2023-03-14T23:05:51.048Z,34.76
2023-03-14T23:06:51.086Z,34.73
2023-03-14T23:31:52.304Z,34.77
2023-03-14T23:32:52.319Z,34.85
2023-03-14T23:33:52.325Z,34.77
2023-03-14T23:34:52.344Z,34.74
2023-03-14T23:35:52.404Z,34.74
2023-03-14T23:52:53.301Z,34.65
2023-03-14T23:53:53.353Z,34.71
2023-03-14T23:54:53.410Z,34.67
2023-03-14T23:55:53.455Z,34.68
2023-03-14T23:56:53.470Z,34.72
2023-03-14T23:57:53.538Z,34.62